sensor_id;sensor_type;location;lat;lon;timestamp;pressure;altitude;pressure_sealevel;temperature;humidity
41947;BME280;27638;42.184;24.848;2022-08-01T00:00:22;99478.47;;;24.39;55.05
41947;BME280;27638;42.184;24.848;2022-08-01T00:02:48;99477.50;;;24.24;55.54
41947;BME280;27638;42.184;24.848;2022-08-01T00:05:13;99464.84;;;24.29;55.60
41947;BME280;27638;42.184;24.848;2022-08-01T00:07:39;99471.50;;;24.48;54.89
41947;BME280;27638;42.184;24.848;2022-08-01T00:10:07;99475.13;;;24.27;55.58
41947;BME280;27638;42.184;24.848;2022-08-01T00:12:33;99463.69;;;24.25;55.67
41947;BME280;27638;42.184;24.848;2022-08-01T00:14:59;99456.06;;;24.17;55.82
41947;BME280;27638;42.184;24.848;2022-08-01T00:17:25;99465.19;;;24.38;55.27
41947;BME280;27638;42.184;24.848;2022-08-01T00:19:50;99469.00;;;24.42;55.14
41947;BME280;27638;42.184;24.848;2022-08-01T00:22:16;99456.50;;;24.36;55.23
41947;BME280;27638;42.184;24.848;2022-08-01T00:24:41;99460.59;;;24.38;55.29
41947;BME280;27638;42.184;24.848;2022-08-01T00:27:07;99471.13;;;24.08;56.39
41947;BME280;27638;42.184;24.848;2022-08-01T00:29:32;99457.66;;;24.13;56.50
41947;BME280;27638;42.184;24.848;2022-08-01T00:31:58;99464.28;;;24.27;55.99
41947;BME280;27638;42.184;24.848;2022-08-01T00:34:23;99464.84;;;24.29;56.54
41947;BME280;27638;42.184;24.848;2022-08-01T00:36:49;99472.19;;;24.34;56.24
41947;BME280;27638;42.184;24.848;2022-08-01T00:39:14;99465.28;;;24.21;56.46
41947;BME280;27638;42.184;24.848;2022-08-01T00:41:40;99465.56;;;24.19;56.91
41947;BME280;27638;42.184;24.848;2022-08-01T00:44:05;99470.09;;;24.14;56.95
41947;BME280;27638;42.184;24.848;2022-08-01T00:46:31;99441.28;;;23.98;57.24
41947;BME280;27638;42.184;24.848;2022-08-01T00:48:58;99462.69;;;23.77;58.25
41947;BME280;27638;42.184;24.848;2022-08-01T00:51:24;99456.06;;;23.90;58.33
41947;BME280;27638;42.184;24.848;2022-08-01T00:53:51;99455.31;;;23.95;58.16
41947;BME280;27638;42.184;24.848;2022-08-01T00:56:17;99448.50;;;23.92;58.05
41947;BME280;27638;42.184;24.848;2022-08-01T00:58:43;99458.59;;;23.97;58.05
41947;BME280;27638;42.184;24.848;2022-08-01T01:01:09;99460.72;;;23.95;58.19
41947;BME280;27638;42.184;24.848;2022-08-01T01:03:35;99447.31;;;24.05;57.79
41947;BME280;27638;42.184;24.848;2022-08-01T01:08:46;99459.78;;;24.11;57.33
41947;BME280;27638;42.184;24.848;2022-08-01T01:11:29;99456.47;;;24.31;56.41
41947;BME280;27638;42.184;24.848;2022-08-01T01:14:10;99453.88;;;24.14;55.43
41947;BME280;27638;42.184;24.848;2022-08-01T01:16:40;99460.53;;;24.01;54.80
41947;BME280;27638;42.184;24.848;2022-08-01T01:19:11;99461.59;;;24.00;54.55
41947;BME280;27638;42.184;24.848;2022-08-01T01:29:34;99458.47;;;24.13;53.92
41947;BME280;27638;42.184;24.848;2022-08-01T01:32:04;99457.50;;;23.98;54.25
41947;BME280;27638;42.184;24.848;2022-08-01T01:34:37;99455.06;;;23.96;53.84
41947;BME280;27638;42.184;24.848;2022-08-01T01:37:07;99450.81;;;24.05;53.44
41947;BME280;27638;42.184;24.848;2022-08-01T01:39:35;99453.06;;;23.86;53.63
41947;BME280;27638;42.184;24.848;2022-08-01T01:42:04;99438.16;;;23.57;54.19
41947;BME280;27638;42.184;24.848;2022-08-01T01:44:30;99450.84;;;23.56;53.97
41947;BME280;27638;42.184;24.848;2022-08-01T01:46:57;99448.16;;;23.56;53.97
41947;BME280;27638;42.184;24.848;2022-08-01T01:49:26;99449.44;;;23.54;54.00
41947;BME280;27638;42.184;24.848;2022-08-01T01:51:54;99453.41;;;23.46;54.01
41947;BME280;27638;42.184;24.848;2022-08-01T01:54:23;99430.00;;;23.30;54.05
41947;BME280;27638;42.184;24.848;2022-08-01T01:56:50;99436.59;;;23.39;54.03
41947;BME280;27638;42.184;24.848;2022-08-01T01:59:20;99445.00;;;23.43;54.18
41947;BME280;27638;42.184;24.848;2022-08-01T02:01:51;99451.53;;;23.47;54.17
41947;BME280;27638;42.184;24.848;2022-08-01T02:04:19;99447.66;;;23.38;54.48
41947;BME280;27638;42.184;24.848;2022-08-01T02:06:46;99455.19;;;23.58;53.80
41947;BME280;27638;42.184;24.848;2022-08-01T02:09:15;99438.53;;;23.44;54.00
41947;BME280;27638;42.184;24.848;2022-08-01T02:11:41;99441.22;;;23.44;54.03
41947;BME280;27638;42.184;24.848;2022-08-01T02:14:09;99448.16;;;23.35;54.04
41947;BME280;27638;42.184;24.848;2022-08-01T02:16:37;99455.81;;;23.21;54.22
41947;BME280;27638;42.184;24.848;2022-08-01T02:19:05;99451.91;;;23.34;53.70
41947;BME280;27638;42.184;24.848;2022-08-01T02:27:09;99463.47;;;23.29;54.09
41947;BME280;27638;42.184;24.848;2022-08-01T02:29:43;99457.13;;;23.40;53.82
41947;BME280;27638;42.184;24.848;2022-08-01T02:32:31;99456.38;;;23.23;54.33
41947;BME280;27638;42.184;24.848;2022-08-01T02:35:00;99450.47;;;23.26;54.17
41947;BME280;27638;42.184;24.848;2022-08-01T02:37:26;99431.06;;;23.07;54.60
41947;BME280;27638;42.184;24.848;2022-08-01T02:39:54;99454.13;;;23.15;54.61
41947;BME280;27638;42.184;24.848;2022-08-01T02:42:22;99450.91;;;23.18;54.29
41947;BME280;27638;42.184;24.848;2022-08-01T02:44:49;99435.72;;;23.12;54.06
41947;BME280;27638;42.184;24.848;2022-08-01T02:47:19;99449.59;;;23.20;53.64
41947;BME280;27638;42.184;24.848;2022-08-01T02:49:46;99441.88;;;23.29;53.53
41947;BME280;27638;42.184;24.848;2022-08-01T02:52:16;99436.28;;;23.14;53.12
41947;BME280;27638;42.184;24.848;2022-08-01T02:54:44;99439.22;;;23.12;53.06
41947;BME280;27638;42.184;24.848;2022-08-01T02:57:12;99451.22;;;23.21;52.80
41947;BME280;27638;42.184;24.848;2022-08-01T02:59:38;99449.78;;;23.14;52.67
41947;BME280;27638;42.184;24.848;2022-08-01T03:02:05;99456.69;;;23.27;52.15
41947;BME280;27638;42.184;24.848;2022-08-01T03:04:34;99457.19;;;23.23;52.31
41947;BME280;27638;42.184;24.848;2022-08-01T03:07:03;99438.53;;;23.00;52.25
41947;BME280;27638;42.184;24.848;2022-08-01T03:09:32;99451.78;;;23.02;52.73
41947;BME280;27638;42.184;24.848;2022-08-01T03:12:01;99450.53;;;23.09;52.32
41947;BME280;27638;42.184;24.848;2022-08-01T03:14:29;99455.00;;;22.99;52.56
41947;BME280;27638;42.184;24.848;2022-08-01T03:16:57;99455.88;;;23.04;52.57
41947;BME280;27638;42.184;24.848;2022-08-01T03:19:25;99454.31;;;23.08;52.38
41947;BME280;27638;42.184;24.848;2022-08-01T03:21:52;99452.44;;;23.09;52.30
41947;BME280;27638;42.184;24.848;2022-08-01T03:24:18;99450.72;;;23.03;52.40
41947;BME280;27638;42.184;24.848;2022-08-01T03:26:44;99457.19;;;23.02;52.30
41947;BME280;27638;42.184;24.848;2022-08-01T03:29:17;99455.44;;;23.12;52.05
41947;BME280;27638;42.184;24.848;2022-08-01T03:31:44;99445.50;;;23.18;51.92
41947;BME280;27638;42.184;24.848;2022-08-01T03:34:10;99452.09;;;23.27;51.74
41947;BME280;27638;42.184;24.848;2022-08-01T03:36:47;99451.59;;;23.30;51.20
41947;BME280;27638;42.184;24.848;2022-08-01T03:39:14;99453.69;;;23.23;51.56
41947;BME280;27638;42.184;24.848;2022-08-01T03:41:43;99447.22;;;23.24;51.30
41947;BME280;27638;42.184;24.848;2022-08-01T03:44:14;99452.81;;;23.17;51.54
41947;BME280;27638;42.184;24.848;2022-08-01T03:46:44;99415.31;;;22.99;51.47
41947;BME280;27638;42.184;24.848;2022-08-01T03:49:14;99437.66;;;23.16;51.44
41947;BME280;27638;42.184;24.848;2022-08-01T03:51:44;99444.31;;;23.09;51.72
41947;BME280;27638;42.184;24.848;2022-08-01T03:54:14;99434.63;;;22.91;52.10
41947;BME280;27638;42.184;24.848;2022-08-01T03:56:41;99453.00;;;23.11;51.78
41947;BME280;27638;42.184;24.848;2022-08-01T03:59:08;99444.81;;;23.06;51.67
41947;BME280;27638;42.184;24.848;2022-08-01T04:01:34;99448.47;;;23.16;51.32
41947;BME280;27638;42.184;24.848;2022-08-01T04:04:00;99445.13;;;23.09;51.23
41947;BME280;27638;42.184;24.848;2022-08-01T04:06:26;99448.66;;;23.10;51.29
41947;BME280;27638;42.184;24.848;2022-08-01T04:08:52;99457.25;;;23.07;51.44
41947;BME280;27638;42.184;24.848;2022-08-01T04:11:22;99453.06;;;23.16;51.13
41947;BME280;27638;42.184;24.848;2022-08-01T04:13:49;99452.22;;;23.15;51.06
41947;BME280;27638;42.184;24.848;2022-08-01T04:16:14;99454.19;;;23.20;50.97
41947;BME280;27638;42.184;24.848;2022-08-01T04:18:39;99459.53;;;23.15;51.29
41947;BME280;27638;42.184;24.848;2022-08-01T04:21:05;99461.59;;;23.30;50.80
41947;BME280;27638;42.184;24.848;2022-08-01T04:23:30;99464.88;;;23.32;50.75
41947;BME280;27638;42.184;24.848;2022-08-01T04:25:59;99461.16;;;23.38;50.57
41947;BME280;27638;42.184;24.848;2022-08-01T04:28:30;99431.25;;;23.22;50.26
41947;BME280;27638;42.184;24.848;2022-08-01T04:30:57;99462.03;;;23.43;49.59
41947;BME280;27638;42.184;24.848;2022-08-01T04:33:25;99461.22;;;23.43;49.43
41947;BME280;27638;42.184;24.848;2022-08-01T04:35:52;99473.28;;;23.57;48.88
41947;BME280;27638;42.184;24.848;2022-08-01T04:38:20;99470.19;;;23.70;48.47
41947;BME280;27638;42.184;24.848;2022-08-01T04:40:46;99457.94;;;23.63;48.46
41947;BME280;27638;42.184;24.848;2022-08-01T04:43:14;99469.03;;;23.88;47.64
41947;BME280;27638;42.184;24.848;2022-08-01T04:45:40;99463.19;;;23.96;47.01
41947;BME280;27638;42.184;24.848;2022-08-01T04:48:06;99469.84;;;24.15;46.64
41947;BME280;27638;42.184;24.848;2022-08-01T04:50:34;99477.09;;;24.37;46.55
41947;BME280;27638;42.184;24.848;2022-08-01T04:53:00;99473.16;;;24.55;45.83
41947;BME280;27638;42.184;24.848;2022-08-01T04:55:28;99469.22;;;24.72;45.44
41947;BME280;27638;42.184;24.848;2022-08-01T04:57:53;99473.09;;;24.87;45.10
41947;BME280;27638;42.184;24.848;2022-08-01T05:00:19;99464.31;;;25.06;44.11
41947;BME280;27638;42.184;24.848;2022-08-01T05:02:44;99468.81;;;25.43;43.34
41947;BME280;27638;42.184;24.848;2022-08-01T05:05:11;99477.19;;;25.36;43.36
41947;BME280;27638;42.184;24.848;2022-08-01T05:07:37;99472.06;;;25.40;42.81
41947;BME280;27638;42.184;24.848;2022-08-01T05:10:04;99465.63;;;25.61;42.49
41947;BME280;27638;42.184;24.848;2022-08-01T05:12:29;99436.38;;;25.68;41.65
41947;BME280;27638;42.184;24.848;2022-08-01T05:14:57;99467.06;;;25.94;41.28
41947;BME280;27638;42.184;24.848;2022-08-01T05:17:22;99458.38;;;25.92;40.99
41947;BME280;27638;42.184;24.848;2022-08-01T05:19:48;99464.88;;;25.86;41.44
41947;BME280;27638;42.184;24.848;2022-08-01T05:22:13;99477.97;;;26.09;40.47
41947;BME280;27638;42.184;24.848;2022-08-01T05:24:39;99421.22;;;25.98;39.86
41947;BME280;27638;42.184;24.848;2022-08-01T05:27:06;99464.13;;;26.31;39.59
41947;BME280;27638;42.184;24.848;2022-08-01T05:29:33;99466.06;;;26.51;39.50
41947;BME280;27638;42.184;24.848;2022-08-01T05:31:59;99457.88;;;26.66;39.10
41947;BME280;27638;42.184;24.848;2022-08-01T05:34:25;99462.75;;;26.69;39.16
41947;BME280;27638;42.184;24.848;2022-08-01T05:36:50;99462.19;;;27.08;38.86
41947;BME280;27638;42.184;24.848;2022-08-01T05:39:16;99461.34;;;26.92;38.86
41947;BME280;27638;42.184;24.848;2022-08-01T05:41:42;99461.38;;;26.97;38.35
41947;BME280;27638;42.184;24.848;2022-08-01T05:44:08;99461.91;;;26.89;37.68
41947;BME280;27638;42.184;24.848;2022-08-01T05:46:34;99457.56;;;26.83;37.63
41947;BME280;27638;42.184;24.848;2022-08-01T05:49:01;99467.91;;;26.76;38.00
41947;BME280;27638;42.184;24.848;2022-08-01T05:51:28;99460.25;;;27.03;36.30
41947;BME280;27638;42.184;24.848;2022-08-01T05:53:54;99466.78;;;27.02;37.14
41947;BME280;27638;42.184;24.848;2022-08-01T05:56:20;99457.44;;;27.39;35.63
41947;BME280;27638;42.184;24.848;2022-08-01T05:58:46;99464.16;;;27.52;35.26
41947;BME280;27638;42.184;24.848;2022-08-01T06:01:12;99458.41;;;27.63;35.08
41947;BME280;27638;42.184;24.848;2022-08-01T06:03:37;99462.06;;;27.88;35.18
41947;BME280;27638;42.184;24.848;2022-08-01T06:06:03;99451.22;;;28.22;33.84
41947;BME280;27638;42.184;24.848;2022-08-01T06:08:30;99448.41;;;27.98;32.90
41947;BME280;27638;42.184;24.848;2022-08-01T06:10:57;99443.88;;;28.22;33.09
41947;BME280;27638;42.184;24.848;2022-08-01T06:13:22;99442.97;;;28.37;32.53
41947;BME280;27638;42.184;24.848;2022-08-01T06:15:48;99449.72;;;28.01;32.42
41947;BME280;27638;42.184;24.848;2022-08-01T06:18:14;99428.25;;;27.99;32.67
41947;BME280;27638;42.184;24.848;2022-08-01T06:20:39;99445.19;;;28.30;32.05
41947;BME280;27638;42.184;24.848;2022-08-01T06:23:05;99443.28;;;28.31;31.57
41947;BME280;27638;42.184;24.848;2022-08-01T06:25:31;99439.28;;;28.18;31.26
41947;BME280;27638;42.184;24.848;2022-08-01T06:27:57;99426.28;;;28.44;30.86
41947;BME280;27638;42.184;24.848;2022-08-01T06:30:22;99435.41;;;28.87;31.42
41947;BME280;27638;42.184;24.848;2022-08-01T06:32:48;99439.06;;;29.01;30.55
41947;BME280;27638;42.184;24.848;2022-08-01T06:35:14;99431.16;;;29.00;30.01
41947;BME280;27638;42.184;24.848;2022-08-01T06:37:40;99420.50;;;29.03;30.04
41947;BME280;27638;42.184;24.848;2022-08-01T06:40:08;99410.19;;;28.71;30.45
41947;BME280;27638;42.184;24.848;2022-08-01T06:42:34;99429.59;;;28.93;30.57
41947;BME280;27638;42.184;24.848;2022-08-01T06:45:08;99428.16;;;29.01;30.10
41947;BME280;27638;42.184;24.848;2022-08-01T06:47:35;99422.03;;;29.33;29.98
41947;BME280;27638;42.184;24.848;2022-08-01T06:50:00;99422.19;;;29.42;29.06
41947;BME280;27638;42.184;24.848;2022-08-01T06:52:26;99420.72;;;29.31;29.00
41947;BME280;27638;42.184;24.848;2022-08-01T06:54:51;99427.16;;;28.92;28.43
41947;BME280;27638;42.184;24.848;2022-08-01T06:57:17;99411.97;;;29.10;28.88
41947;BME280;27638;42.184;24.848;2022-08-01T06:59:43;99406.19;;;29.35;28.63
41947;BME280;27638;42.184;24.848;2022-08-01T07:02:09;99395.50;;;29.20;28.91
41947;BME280;27638;42.184;24.848;2022-08-01T07:04:34;99407.31;;;29.34;27.99
41947;BME280;27638;42.184;24.848;2022-08-01T07:07:00;99388.66;;;29.41;28.39
41947;BME280;27638;42.184;24.848;2022-08-01T07:09:26;99392.75;;;29.44;28.03
41947;BME280;27638;42.184;24.848;2022-08-01T07:11:52;99400.94;;;29.63;27.85
41947;BME280;27638;42.184;24.848;2022-08-01T07:14:19;99398.81;;;29.92;28.28
41947;BME280;27638;42.184;24.848;2022-08-01T07:16:45;99390.34;;;29.94;27.74
41947;BME280;27638;42.184;24.848;2022-08-01T07:19:11;99392.81;;;30.28;27.99
41947;BME280;27638;42.184;24.848;2022-08-01T07:21:36;99397.22;;;30.56;27.69
41947;BME280;27638;42.184;24.848;2022-08-01T07:24:03;99394.66;;;30.32;27.66
41947;BME280;27638;42.184;24.848;2022-08-01T07:26:28;99379.34;;;30.64;27.01
41947;BME280;27638;42.184;24.848;2022-08-01T07:28:54;99386.63;;;30.82;26.88
41947;BME280;27638;42.184;24.848;2022-08-01T07:31:19;99372.56;;;30.89;26.37
41947;BME280;27638;42.184;24.848;2022-08-01T07:33:45;99386.81;;;30.99;26.04
41947;BME280;27638;42.184;24.848;2022-08-01T07:36:10;99374.03;;;30.54;26.13
41947;BME280;27638;42.184;24.848;2022-08-01T07:38:36;99374.53;;;30.42;26.47
41947;BME280;27638;42.184;24.848;2022-08-01T07:41:02;99370.56;;;30.21;26.99
41947;BME280;27638;42.184;24.848;2022-08-01T07:43:28;99373.31;;;30.34;26.64
41947;BME280;27638;42.184;24.848;2022-08-01T07:45:53;99374.22;;;30.30;26.17
41947;BME280;27638;42.184;24.848;2022-08-01T07:48:19;99358.84;;;30.01;26.29
41947;BME280;27638;42.184;24.848;2022-08-01T07:50:49;99354.38;;;30.24;26.51
41947;BME280;27638;42.184;24.848;2022-08-01T07:53:14;99357.63;;;30.26;26.27
41947;BME280;27638;42.184;24.848;2022-08-01T07:55:40;99367.00;;;30.20;26.27
41947;BME280;27638;42.184;24.848;2022-08-01T07:58:05;99354.28;;;30.29;26.24
41947;BME280;27638;42.184;24.848;2022-08-01T08:00:31;99363.19;;;30.35;26.49
41947;BME280;27638;42.184;24.848;2022-08-01T08:02:56;99347.31;;;30.37;26.08
41947;BME280;27638;42.184;24.848;2022-08-01T08:05:25;99358.63;;;30.30;26.90
41947;BME280;27638;42.184;24.848;2022-08-01T08:07:50;99339.53;;;30.44;26.01
41947;BME280;27638;42.184;24.848;2022-08-01T08:10:16;99359.09;;;30.65;26.15
41947;BME280;27638;42.184;24.848;2022-08-01T08:12:41;99355.41;;;30.56;26.53
41947;BME280;27638;42.184;24.848;2022-08-01T08:15:07;99346.09;;;30.43;26.06
41947;BME280;27638;42.184;24.848;2022-08-01T08:17:33;99340.47;;;30.80;25.46
41947;BME280;27638;42.184;24.848;2022-08-01T08:19:58;99332.16;;;30.86;26.42
41947;BME280;27638;42.184;24.848;2022-08-01T08:22:24;99331.03;;;30.87;25.29
41947;BME280;27638;42.184;24.848;2022-08-01T08:24:49;99331.13;;;30.54;25.80
41947;BME280;27638;42.184;24.848;2022-08-01T08:27:15;99354.25;;;30.62;25.89
41947;BME280;27638;42.184;24.848;2022-08-01T08:29:41;99345.03;;;30.71;26.00
41947;BME280;27638;42.184;24.848;2022-08-01T08:32:07;99349.28;;;30.77;26.03
41947;BME280;27638;42.184;24.848;2022-08-01T08:34:33;99354.63;;;30.83;26.40
41947;BME280;27638;42.184;24.848;2022-08-01T08:36:59;99344.88;;;31.31;25.25
41947;BME280;27638;42.184;24.848;2022-08-01T08:39:25;99342.47;;;31.16;25.67
41947;BME280;27638;42.184;24.848;2022-08-01T08:41:51;99347.03;;;30.79;25.40
41947;BME280;27638;42.184;24.848;2022-08-01T08:44:17;99336.75;;;31.12;25.70
41947;BME280;27638;42.184;24.848;2022-08-01T08:46:45;99346.09;;;31.61;25.16
41947;BME280;27638;42.184;24.848;2022-08-01T08:49:14;99351.56;;;31.61;25.35
41947;BME280;27638;42.184;24.848;2022-08-01T08:51:41;99346.66;;;31.50;25.60
41947;BME280;27638;42.184;24.848;2022-08-01T08:54:10;99346.28;;;31.65;25.57
41947;BME280;27638;42.184;24.848;2022-08-01T08:56:37;99353.75;;;31.95;24.80
41947;BME280;27638;42.184;24.848;2022-08-01T08:59:03;99340.63;;;31.61;24.89
41947;BME280;27638;42.184;24.848;2022-08-01T09:01:33;99338.88;;;31.65;25.16
41947;BME280;27638;42.184;24.848;2022-08-01T09:04:03;99334.47;;;31.56;25.22
41947;BME280;27638;42.184;24.848;2022-08-01T09:06:29;99314.88;;;31.40;25.40
41947;BME280;27638;42.184;24.848;2022-08-01T09:08:55;99318.16;;;31.15;25.52
41947;BME280;27638;42.184;24.848;2022-08-01T09:11:21;99322.75;;;31.41;26.04
41947;BME280;27638;42.184;24.848;2022-08-01T09:16:28;99325.81;;;31.12;25.86
41947;BME280;27638;42.184;24.848;2022-08-01T09:18:53;99312.06;;;31.18;26.40
41947;BME280;27638;42.184;24.848;2022-08-01T09:21:20;99318.97;;;31.29;25.89
41947;BME280;27638;42.184;24.848;2022-08-01T09:23:53;99322.16;;;31.67;25.73
41947;BME280;27638;42.184;24.848;2022-08-01T09:26:28;99323.06;;;31.62;25.94
41947;BME280;27638;42.184;24.848;2022-08-01T09:28:55;99310.50;;;31.39;25.64
41947;BME280;27638;42.184;24.848;2022-08-01T09:31:20;99312.13;;;31.40;25.62
41947;BME280;27638;42.184;24.848;2022-08-01T09:33:59;99310.00;;;31.37;25.98
41947;BME280;27638;42.184;24.848;2022-08-01T09:36:48;99312.56;;;31.06;26.61
41947;BME280;27638;42.184;24.848;2022-08-01T09:39:21;99297.16;;;31.10;26.34
41947;BME280;27638;42.184;24.848;2022-08-01T09:41:47;99302.34;;;31.11;25.83
41947;BME280;27638;42.184;24.848;2022-08-01T09:44:14;99291.69;;;31.10;26.43
41947;BME280;27638;42.184;24.848;2022-08-01T09:46:50;99305.16;;;31.34;26.42
41947;BME280;27638;42.184;24.848;2022-08-01T09:49:30;99297.59;;;31.17;26.03
41947;BME280;27638;42.184;24.848;2022-08-01T09:51:57;99285.03;;;31.16;26.56
41947;BME280;27638;42.184;24.848;2022-08-01T09:54:31;99294.66;;;31.00;27.02
41947;BME280;27638;42.184;24.848;2022-08-01T09:57:08;99293.22;;;31.16;27.05
41947;BME280;27638;42.184;24.848;2022-08-01T09:59:36;99303.25;;;31.21;27.37
41947;BME280;27638;42.184;24.848;2022-08-01T10:02:03;99294.84;;;31.31;27.08
41947;BME280;27638;42.184;24.848;2022-08-01T10:04:28;99276.41;;;31.09;27.13
41947;BME280;27638;42.184;24.848;2022-08-01T10:07:04;99291.72;;;31.24;26.24
41947;BME280;27638;42.184;24.848;2022-08-01T10:09:32;99291.53;;;31.42;26.35
41947;BME280;27638;42.184;24.848;2022-08-01T10:11:59;99280.78;;;31.68;26.52
41947;BME280;27638;42.184;24.848;2022-08-01T10:14:25;99278.94;;;31.78;25.54
41947;BME280;27638;42.184;24.848;2022-08-01T10:16:52;99276.06;;;31.83;25.86
41947;BME280;27638;42.184;24.848;2022-08-01T10:19:21;99276.81;;;31.74;25.85
41947;BME280;27638;42.184;24.848;2022-08-01T10:21:47;99278.91;;;31.55;26.59
41947;BME280;27638;42.184;24.848;2022-08-01T10:24:16;99278.19;;;31.41;26.34
41947;BME280;27638;42.184;24.848;2022-08-01T10:26:43;99288.44;;;31.58;26.65
41947;BME280;27638;42.184;24.848;2022-08-01T10:29:10;99271.47;;;31.47;26.34
41947;BME280;27638;42.184;24.848;2022-08-01T10:31:37;99272.38;;;31.65;26.44
41947;BME280;27638;42.184;24.848;2022-08-01T10:34:04;99264.78;;;31.62;25.86
41947;BME280;27638;42.184;24.848;2022-08-01T10:36:29;99236.38;;;31.49;25.92
41947;BME280;27638;42.184;24.848;2022-08-01T10:38:56;99271.09;;;31.85;26.19
41947;BME280;27638;42.184;24.848;2022-08-01T10:41:24;99276.75;;;31.88;26.30
41947;BME280;27638;42.184;24.848;2022-08-01T10:43:51;99280.94;;;31.94;26.15
41947;BME280;27638;42.184;24.848;2022-08-01T10:46:19;99278.50;;;31.84;26.81
41947;BME280;27638;42.184;24.848;2022-08-01T10:51:35;99278.50;;;31.84;26.71
41947;BME280;27638;42.184;24.848;2022-08-01T10:54:06;99274.00;;;31.88;26.39
41947;BME280;27638;42.184;24.848;2022-08-01T10:56:46;99276.63;;;31.71;26.69
41947;BME280;27638;42.184;24.848;2022-08-01T10:59:27;99268.03;;;31.64;26.09
41947;BME280;27638;42.184;24.848;2022-08-01T11:02:01;99265.09;;;31.60;27.25
41947;BME280;27638;42.184;24.848;2022-08-01T11:05:11;99272.88;;;31.67;26.29
41947;BME280;27638;42.184;24.848;2022-08-01T11:07:56;99258.59;;;32.01;26.19
41947;BME280;27638;42.184;24.848;2022-08-01T11:12:54;99258.25;;;32.25;25.29
41947;BME280;27638;42.184;24.848;2022-08-01T11:15:21;99259.28;;;32.37;25.49
41947;BME280;27638;42.184;24.848;2022-08-01T11:17:51;99265.75;;;31.80;26.20
41947;BME280;27638;42.184;24.848;2022-08-01T11:20:21;99262.06;;;31.62;25.98
41947;BME280;27638;42.184;24.848;2022-08-01T11:30:44;99241.53;;;32.04;25.86
41947;BME280;27638;42.184;24.848;2022-08-01T11:33:12;99232.06;;;32.10;25.99
41947;BME280;27638;42.184;24.848;2022-08-01T11:38:49;99260.69;;;32.04;25.85
41947;BME280;27638;42.184;24.848;2022-08-01T11:41:23;99247.72;;;32.18;26.24
41947;BME280;27638;42.184;24.848;2022-08-01T11:46:47;99254.47;;;31.81;25.81
41947;BME280;27638;42.184;24.848;2022-08-01T11:52:10;99252.41;;;31.87;26.13
41947;BME280;27638;42.184;24.848;2022-08-01T11:54:40;99242.59;;;31.86;26.09
41947;BME280;27638;42.184;24.848;2022-08-01T11:57:09;99249.13;;;31.76;26.55
41947;BME280;27638;42.184;24.848;2022-08-01T11:59:36;99247.66;;;31.70;26.20
41947;BME280;27638;42.184;24.848;2022-08-01T12:02:02;99222.88;;;31.75;26.54
41947;BME280;27638;42.184;24.848;2022-08-01T12:07:16;99241.31;;;31.38;26.78
41947;BME280;27638;42.184;24.848;2022-08-01T12:09:42;99234.00;;;31.56;26.94
41947;BME280;27638;42.184;24.848;2022-08-01T12:12:09;99240.16;;;31.62;26.89
41947;BME280;27638;42.184;24.848;2022-08-01T12:14:35;99235.56;;;31.71;26.49
41947;BME280;27638;42.184;24.848;2022-08-01T12:17:00;99234.94;;;31.52;25.80
41947;BME280;27638;42.184;24.848;2022-08-01T12:19:26;99228.94;;;31.41;25.78
41947;BME280;27638;42.184;24.848;2022-08-01T12:24:35;99234.09;;;31.42;26.06
41947;BME280;27638;42.184;24.848;2022-08-01T12:27:02;99236.94;;;31.60;25.40
41947;BME280;27638;42.184;24.848;2022-08-01T12:29:41;99221.66;;;31.36;26.02
41947;BME280;27638;42.184;24.848;2022-08-01T12:32:41;99233.97;;;31.48;25.75
41947;BME280;27638;42.184;24.848;2022-08-01T12:37:38;99217.59;;;31.56;25.75
41947;BME280;27638;42.184;24.848;2022-08-01T12:40:21;99233.97;;;31.48;25.54
41947;BME280;27638;42.184;24.848;2022-08-01T12:42:48;99223.47;;;31.41;25.68
41947;BME280;27638;42.184;24.848;2022-08-01T12:45:17;99234.59;;;31.44;25.45
41947;BME280;27638;42.184;24.848;2022-08-01T12:47:43;99217.84;;;31.46;25.74
41947;BME280;27638;42.184;24.848;2022-08-01T12:50:19;99215.19;;;31.32;26.02
41947;BME280;27638;42.184;24.848;2022-08-01T12:52:46;99219.78;;;31.46;25.54
41947;BME280;27638;42.184;24.848;2022-08-01T12:55:31;99210.81;;;31.54;26.11
41947;BME280;27638;42.184;24.848;2022-08-01T12:58:23;99209.94;;;31.67;26.79
41947;BME280;27638;42.184;24.848;2022-08-01T13:00:50;99208.25;;;31.80;26.70
41947;BME280;27638;42.184;24.848;2022-08-01T13:03:18;99205.25;;;31.67;26.25
41947;BME280;27638;42.184;24.848;2022-08-01T13:05:51;99214.66;;;31.75;26.55
41947;BME280;27638;42.184;24.848;2022-08-01T13:08:21;99211.44;;;31.73;26.23
41947;BME280;27638;42.184;24.848;2022-08-01T13:10:48;99209.50;;;31.73;26.37
41947;BME280;27638;42.184;24.848;2022-08-01T13:13:15;99216.59;;;31.74;25.98
41947;BME280;27638;42.184;24.848;2022-08-01T13:15:41;99205.97;;;31.73;26.01
41947;BME280;27638;42.184;24.848;2022-08-01T13:18:28;99213.72;;;31.80;25.61
41947;BME280;27638;42.184;24.848;2022-08-01T13:21:11;99206.78;;;31.73;25.32
41947;BME280;27638;42.184;24.848;2022-08-01T13:23:38;99198.06;;;31.71;25.16
41947;BME280;27638;42.184;24.848;2022-08-01T13:26:04;99213.72;;;31.80;25.24
41947;BME280;27638;42.184;24.848;2022-08-01T13:28:30;99203.84;;;31.70;25.36
41947;BME280;27638;42.184;24.848;2022-08-01T13:31:07;99200.00;;;31.71;25.26
41947;BME280;27638;42.184;24.848;2022-08-01T13:33:48;99190.75;;;31.89;24.89
41947;BME280;27638;42.184;24.848;2022-08-01T13:36:14;99207.16;;;31.89;24.59
41947;BME280;27638;42.184;24.848;2022-08-01T13:38:41;99195.47;;;32.06;24.61
41947;BME280;27638;42.184;24.848;2022-08-01T13:41:25;99191.91;;;31.97;26.02
41947;BME280;27638;42.184;24.848;2022-08-01T13:43:51;99206.03;;;31.90;25.38